Impacts METAR Board
IDs:

KRYW - Lago Vista/Allen Arp, TX, US

Updated at: 0300 UTC 06 Dec 2019
Potential Impact None Slight Moderate High
Time 05/15Z 05/16Z 05/17Z 05/18Z 05/19Z 05/20Z 05/21Z 05/22Z 05/23Z 06/00Z 06/01Z 06/02Z 06/03Z
Temp58 60 62 66 70 71 72 71 69 66 65 66 66
Dewpt56 57 58 57 57 57 57 55 56 57 59 60 60
Altim30.04 30.06 30.05 30.02 29.98 29.95 29.94 29.94 29.95 29.95 29.97 29.98 30.00
VIS5 10 10 10 10 10 10 10 10 10 10 10 10
CIG3 3 7 -- -- -- -- -- -- -- -- -- --
CoverOVCOVCOVCSCTCLRCLRCLRCLRCLRCLRCLRCLRCLR
FltCatLIFRLIFRIFRVFRVFRVFRVFRVFRVFRVFRVFRVFRVFR
WXBR------------------------
WDir190210210200190190190180190180200210210
WSpd8 11 10 9 10 8 9 9 8 4 4 9 7
WGst-- -- 18 17 15 -- 16 16 -- -- -- -- --
Raw hourly METARs
KRYW 051455Z AUTO 19008KT 5SM BR OVC003 15/14 A3004 RMK AO2 T01460135
KRYW 051555Z AUTO 21011KT 10SM OVC003 15/14 A3006 RMK AO2 T01530138
KRYW 051655Z AUTO 21010G18KT 10SM OVC007 17/15 A3005 RMK AO2 T01680146
KRYW 051755Z AUTO 20009G17KT 10SM SCT013 19/14 A3002 RMK AO2 T01870141 10192 20120
KRYW 051900Z AUTO 19010G15KT 10SM CLR 21/14 A2998 RMK AO2 T02120140
KRYW 051955Z AUTO 19008KT 10SM CLR 22/14 A2995 RMK AO2 T02180137
KRYW 052055Z AUTO 19009G16KT 10SM CLR 22/14 A2994 RMK AO2 T02230138
KRYW 052155Z AUTO 18009G16KT 10SM CLR 22/13 A2994 RMK AO2 T02180130
KRYW 052255Z AUTO 19008KT 10SM CLR 21/14 A2995 RMK AO2 T02070135
KRYW 052355Z AUTO 18004KT 10SM CLR 19/14 A2995 RMK AO2 T01900138 10226 20187
KRYW 060055Z AUTO 20004KT 10SM CLR 19/15 A2997 RMK AO2 T01860150
KRYW 060200Z AUTO 21009KT 10SM CLR 19/15 A2998 RMK AO2 T01880153
KRYW 060255Z AUTO 21007KT 10SM CLR 19/15 A3000 RMK AO2 T01880153